Bogalusa, LA

4:48 AM CDT on March 23, 2017 (GMT -0500)
Carr Memorial

Weather History for KBXA - May, 2013

Change the Weather History Date:

Monday, May 13, 2013

  Actual Average Record
Temperature  
Mean Temperature 64 °F -  
Max Temperature 80 °F 84 °F 88 °F (2014)
Min Temperature 49 °F 61 °F 49 °F (2013)
Growing Degree Days 14 (Base 50)    
Moisture  
Dew Point 47 °F    
Average Humidity 60    
Maximum Humidity 89    
Minimum Humidity 25    
Precipitation  
Precipitation 0.00 in - - ()
Sea Level Pressure  
Sea Level Pressure 30.25 in    
Wind  
Wind Speed 3 mph (NE)    
Max Wind Speed 7 mph    
Max Gust Speed -    
Visibility 10 miles    
Events Thunderstorm    
Averages and records for this station are not official NWS values.
T = Trace of Precipitation, MM = Missing Value Source: NWS Daily Summary

Daily Weather History Graph

Daily Weather History Graph

Search for Another Location

Airport or City:

Trip Planner

Search our weather history database for the weather conditions in past years. The results will help you decide how hot, cold, wet, or windy it might be!

Date:

Astronomy

May. 13, 2013 Rise Set
Actual Time 6:05 AM CDT 7:46 PM CDT
Civil Twilight 5:39 AM CDT 8:12 PM CDT
Nautical Twilight 5:07 AM CDT 8:44 PM CDT
Astronomical Twilight 4:34 AM CDT 9:17 PM CDT
Moon 8:53 AM CDT (5/13) 10:55 PM CDT (5/13)
Length of Visible Light 14h 33m
Length of Day
13h 40m
Waxing Crescent, 12% of the Moon is Illuminated
May 13
Waxing Crescent
May 17
First Quarter
May 24
Full
May 31
Last Quarter
Jun 8
New

Hourly Weather History & Observations

Time (CDT) Temp. Dew Point Humidity Pressure Visibility Wind Dir Wind Speed Gust Speed Precip Events Conditions
12:35 AM 56.3 °F 50.2 °F 80% 30.18 in 10.0 mi North 5.8 mph - N/A   Unknown
12:55 AM 55.6 °F 49.5 °F 80% 30.18 in 10.0 mi North 4.6 mph - N/A   Clear
1:15 AM 55.8 °F 49.3 °F 79% 30.19 in 10.0 mi North 3.5 mph - N/A   Clear
1:35 AM 54.1 °F 49.1 °F 83% 30.19 in 10.0 mi Calm Calm - N/A   Clear
1:55 AM 53.8 °F 48.7 °F 83% 30.19 in 10.0 mi Calm Calm - N/A   Clear
2:15 AM 52.9 °F 48.4 °F 85% 30.20 in 10.0 mi North 3.5 mph - N/A   Clear
2:35 AM 52.7 °F 47.7 °F 83% 30.20 in 10.0 mi North 5.8 mph - N/A   Clear
2:55 AM 52.0 °F 46.9 °F 83% 30.20 in 10.0 mi North 4.6 mph - N/A   Clear
3:15 AM 52.0 °F 46.8 °F 82% 30.19 in 10.0 mi North 3.5 mph - N/A   Clear
3:35 AM 50.9 °F 46.8 °F 86% 30.20 in 10.0 mi NNE 3.5 mph - N/A   Unknown
3:55 AM 51.4 °F 46.2 °F 82% 30.21 in 10.0 mi North 3.5 mph - N/A   Unknown
4:15 AM 51.1 °F 46.0 °F 83% 30.21 in 10.0 mi Calm Calm - N/A   Unknown
4:35 AM 51.8 °F 45.7 °F 80% 30.21 in 10.0 mi Calm Calm - N/A   Unknown
4:55 AM 50.2 °F 46.0 °F 86% 30.22 in 10.0 mi Calm Calm - N/A   Unknown
5:15 AM 49.8 °F 46.4 °F 88% 30.23 in 10.0 mi Calm Calm - N/A   Unknown
5:35 AM 49.1 °F 45.7 °F 88% 30.23 in 10.0 mi Calm Calm - N/A   Unknown
5:55 AM 49.6 °F 45.3 °F 85% 30.24 in 10.0 mi Calm Calm - N/A   Unknown
6:15 AM 49.1 °F 45.9 °F 89% 30.25 in 10.0 mi Calm Calm - N/A   Unknown
6:35 AM 49.6 °F 46.4 °F 89% 30.26 in 10.0 mi Calm Calm - N/A   Unknown
6:55 AM 51.1 °F 46.8 °F 85% 30.27 in 10.0 mi Calm Calm - N/A   Unknown
7:15 AM 52.9 °F 47.3 °F 81% 30.27 in 10.0 mi Calm Calm - N/A   Unknown
7:35 AM 55.6 °F 46.8 °F 72% 30.28 in 10.0 mi ENE 3.5 mph - N/A   Unknown
7:55 AM 57.0 °F 46.8 °F 69% 30.29 in 10.0 mi Calm Calm - N/A   Unknown
8:15 AM 59.7 °F 46.9 °F 63% 30.29 in 10.0 mi ENE 4.6 mph - N/A   Unknown
8:35 AM 61.3 °F 45.3 °F 56% 30.30 in 10.0 mi ENE 5.8 mph - N/A   Unknown
8:55 AM 63.3 °F 43.9 °F 49% 30.31 in 10.0 mi ENE 5.8 mph - N/A   Unknown
9:15 AM 65.5 °F 45.0 °F 47% 30.30 in 10.0 mi NE 3.5 mph - N/A   Unknown
9:35 AM 66.6 °F 43.5 °F 43% 30.31 in 10.0 mi East 4.6 mph - N/A   Unknown
9:55 AM 67.8 °F 41.9 °F 39% 30.31 in 10.0 mi East 5.8 mph - N/A   Unknown
10:15 AM 68.5 °F 41.5 °F 37% 30.32 in 10.0 mi East 4.6 mph - N/A Thunderstorm Unknown
10:35 AM 70.0 °F 40.6 °F 34% 30.32 in 10.0 mi ENE 5.8 mph - N/A   Unknown
10:55 AM 71.2 °F 40.1 °F 32% 30.32 in 10.0 mi NE 6.9 mph - N/A   Clear
11:15 AM 72.1 °F 42.8 °F 35% 30.32 in 10.0 mi East 4.6 mph - N/A   Clear
11:35 AM 72.1 °F 39.9 °F 31% 30.32 in 10.0 mi ENE 4.6 mph - N/A   Unknown
11:55 AM 73.6 °F 39.9 °F 30% 30.31 in 10.0 mi ESE 5.8 mph - N/A   Unknown
12:15 PM 73.6 °F 41.5 °F 32% 30.30 in 10.0 mi NNE 3.5 mph - N/A   Unknown
12:35 PM 74.3 °F 38.7 °F 28% 30.30 in 10.0 mi Calm Calm - N/A   Unknown
12:55 PM 76.1 °F 39.9 °F 27% 30.29 in 10.0 mi East 5.8 mph - N/A   Clear
1:15 PM 76.6 °F 39.9 °F 27% 30.29 in 10.0 mi NE 5.8 mph - N/A   Clear
1:35 PM 77.0 °F 39.4 °F 26% 30.28 in 10.0 mi East 5.8 mph - N/A   Clear
1:55 PM 76.6 °F 39.9 °F 27% 30.28 in 10.0 mi East 3.5 mph - N/A   Clear
2:15 PM 77.5 °F 40.6 °F 27% 30.27 in 10.0 mi North 5.8 mph - N/A   Clear
2:35 PM 77.9 °F 40.5 °F 26% 30.27 in 10.0 mi North 3.5 mph - N/A   Clear
2:55 PM 77.7 °F 41.0 °F 27% 30.26 in 10.0 mi Calm Calm - N/A   Unknown
3:35 PM 78.1 °F 39.0 °F 25% 30.24 in 10.0 mi Calm Calm - N/A   Unknown
3:55 PM 79.3 °F 41.7 °F 26% 30.24 in 10.0 mi Calm Calm - N/A   Unknown
4:15 PM 79.9 °F 43.0 °F 27% 30.23 in 10.0 mi Calm Calm - N/A   Unknown
4:35 PM 79.5 °F 41.2 °F 25% 30.23 in 10.0 mi North 3.5 mph - N/A   Unknown
4:55 PM 79.7 °F 41.0 °F 25% 30.23 in 10.0 mi Calm Calm - N/A   Clear
5:15 PM 80.4 °F 45.1 °F 29% 30.22 in 10.0 mi South 3.5 mph - N/A   Clear
5:35 PM 79.3 °F 41.4 °F 26% 30.22 in 10.0 mi NNW 3.5 mph - N/A   Clear
5:55 PM 79.2 °F 41.5 °F 26% 30.21 in 10.0 mi NW 3.5 mph - N/A   Clear
6:35 PM 78.3 °F 42.6 °F 28% 30.21 in 10.0 mi Calm Calm - N/A   Clear
7:15 PM 74.5 °F 60.1 °F 61% 30.22 in 10.0 mi Calm Calm - N/A   Clear
7:35 PM 70.9 °F 58.1 °F 64% 30.22 in 10.0 mi Calm Calm - N/A   Clear
7:55 PM 70.3 °F 58.8 °F 67% 30.22 in 10.0 mi Calm Calm - N/A   Clear
8:15 PM 67.1 °F 59.7 °F 77% 30.22 in 10.0 mi Calm Calm - N/A   Clear
8:35 PM 66.6 °F 56.3 °F 69% 30.23 in 10.0 mi Calm Calm - N/A   Clear
8:55 PM 63.9 °F 58.8 °F 84% 30.22 in 10.0 mi Calm Calm - N/A   Clear
9:15 PM 64.0 °F 57.9 °F 80% 30.23 in 10.0 mi Calm Calm - N/A   Clear
9:35 PM 62.8 °F 57.2 °F 82% 30.23 in 10.0 mi Calm Calm - N/A   Clear
9:55 PM 63.5 °F 56.3 °F 77% 30.23 in 10.0 mi Calm Calm - N/A   Unknown
10:15 PM 62.1 °F 56.7 °F 82% 30.23 in 10.0 mi Calm Calm - N/A   Unknown
10:35 PM 61.5 °F 57.2 °F 86% 30.23 in 10.0 mi Calm Calm - N/A   Unknown
10:55 PM 60.6 °F 56.5 °F 86% 30.23 in 10.0 mi Calm Calm - N/A   Unknown
11:15 PM 60.8 °F 56.3 °F 85% 30.23 in 10.0 mi Calm Calm - N/A   Unknown
11:35 PM 59.7 °F 55.4 °F 86% 30.23 in 10.0 mi Calm Calm - N/A   Unknown
11:55 PM 59.9 °F 55.4 °F 85% 30.24 in 10.0 mi Calm Calm - N/A   Unknown